sensor_id;sensor_type;location;lat;lon;timestamp;P1;durP1;ratioP1;P2;durP2;ratioP2
20695;SDS011;10507;52.754;13.040;2022-08-19T00:00:37;9.90;;;8.48;;
20695;SDS011;10507;52.754;13.040;2022-08-19T00:03:06;9.40;;;8.27;;
20695;SDS011;10507;52.754;13.040;2022-08-19T00:05:34;9.98;;;8.93;;
20695;SDS011;10507;52.754;13.040;2022-08-19T00:08:03;10.20;;;9.18;;
20695;SDS011;10507;52.754;13.040;2022-08-19T00:10:32;11.02;;;8.20;;
20695;SDS011;10507;52.754;13.040;2022-08-19T00:13:00;9.32;;;8.20;;
20695;SDS011;10507;52.754;13.040;2022-08-19T00:15:27;9.93;;;8.73;;
20695;SDS011;10507;52.754;13.040;2022-08-19T00:17:55;9.48;;;8.10;;
20695;SDS011;10507;52.754;13.040;2022-08-19T00:20:23;8.77;;;7.70;;
20695;SDS011;10507;52.754;13.040;2022-08-19T00:22:51;11.02;;;9.07;;
20695;SDS011;10507;52.754;13.040;2022-08-19T00:25:20;9.93;;;8.18;;
20695;SDS011;10507;52.754;13.040;2022-08-19T00:27:57;10.85;;;8.68;;
20695;SDS011;10507;52.754;13.040;2022-08-19T00:30:25;9.20;;;8.23;;
20695;SDS011;10507;52.754;13.040;2022-08-19T00:32:53;9.95;;;7.78;;
20695;SDS011;10507;52.754;13.040;2022-08-19T00:35:21;10.90;;;8.40;;
20695;SDS011;10507;52.754;13.040;2022-08-19T00:37:49;9.32;;;8.35;;
20695;SDS011;10507;52.754;13.040;2022-08-19T00:40:17;9.25;;;7.68;;
20695;SDS011;10507;52.754;13.040;2022-08-19T00:42:46;9.65;;;8.65;;
20695;SDS011;10507;52.754;13.040;2022-08-19T00:45:16;10.52;;;8.05;;
20695;SDS011;10507;52.754;13.040;2022-08-19T00:47:46;9.45;;;8.00;;
20695;SDS011;10507;52.754;13.040;2022-08-19T00:50:14;11.13;;;8.23;;
20695;SDS011;10507;52.754;13.040;2022-08-19T00:52:46;10.32;;;8.23;;
20695;SDS011;10507;52.754;13.040;2022-08-19T00:55:17;12.57;;;9.48;;
20695;SDS011;10507;52.754;13.040;2022-08-19T00:57:50;9.70;;;8.52;;
20695;SDS011;10507;52.754;13.040;2022-08-19T01:00:22;9.82;;;8.32;;
20695;SDS011;10507;52.754;13.040;2022-08-19T01:02:52;9.07;;;8.07;;
20695;SDS011;10507;52.754;13.040;2022-08-19T01:05:21;9.75;;;8.65;;
20695;SDS011;10507;52.754;13.040;2022-08-19T01:07:54;9.77;;;8.32;;
20695;SDS011;10507;52.754;13.040;2022-08-19T01:10:24;10.88;;;9.52;;
20695;SDS011;10507;52.754;13.040;2022-08-19T01:12:58;9.48;;;8.48;;
20695;SDS011;10507;52.754;13.040;2022-08-19T01:15:31;11.60;;;8.68;;
20695;SDS011;10507;52.754;13.040;2022-08-19T01:18:01;10.13;;;8.80;;
20695;SDS011;10507;52.754;13.040;2022-08-19T01:20:36;9.85;;;8.60;;
20695;SDS011;10507;52.754;13.040;2022-08-19T01:23:07;11.30;;;9.63;;
20695;SDS011;10507;52.754;13.040;2022-08-19T01:25:35;11.75;;;10.65;;
20695;SDS011;10507;52.754;13.040;2022-08-19T01:28:14;12.95;;;10.90;;
20695;SDS011;10507;52.754;13.040;2022-08-19T01:30:59;13.45;;;10.65;;
20695;SDS011;10507;52.754;13.040;2022-08-19T01:33:33;13.40;;;11.95;;
20695;SDS011;10507;52.754;13.040;2022-08-19T01:36:05;15.93;;;11.52;;
20695;SDS011;10507;52.754;13.040;2022-08-19T01:38:37;13.32;;;11.30;;
20695;SDS011;10507;52.754;13.040;2022-08-19T01:41:09;15.18;;;12.45;;
20695;SDS011;10507;52.754;13.040;2022-08-19T01:43:38;16.88;;;13.15;;
20695;SDS011;10507;52.754;13.040;2022-08-19T01:46:26;14.05;;;11.57;;
20695;SDS011;10507;52.754;13.040;2022-08-19T01:48:54;17.58;;;13.20;;
20695;SDS011;10507;52.754;13.040;2022-08-19T01:51:22;12.52;;;11.23;;
20695;SDS011;10507;52.754;13.040;2022-08-19T01:53:51;11.82;;;10.63;;
20695;SDS011;10507;52.754;13.040;2022-08-19T01:56:20;17.05;;;10.48;;
20695;SDS011;10507;52.754;13.040;2022-08-19T01:58:49;12.60;;;10.85;;
20695;SDS011;10507;52.754;13.040;2022-08-19T02:01:20;10.23;;;9.23;;
20695;SDS011;10507;52.754;13.040;2022-08-19T02:03:52;15.63;;;11.93;;
20695;SDS011;10507;52.754;13.040;2022-08-19T02:06:23;12.48;;;11.13;;
20695;SDS011;10507;52.754;13.040;2022-08-19T02:08:53;14.20;;;10.43;;
20695;SDS011;10507;52.754;13.040;2022-08-19T02:11:25;11.57;;;10.15;;
20695;SDS011;10507;52.754;13.040;2022-08-19T02:13:57;13.90;;;10.60;;
20695;SDS011;10507;52.754;13.040;2022-08-19T02:16:25;12.90;;;10.23;;
20695;SDS011;10507;52.754;13.040;2022-08-19T02:18:53;16.63;;;11.27;;
20695;SDS011;10507;52.754;13.040;2022-08-19T02:21:22;14.65;;;11.70;;
20695;SDS011;10507;52.754;13.040;2022-08-19T02:23:51;13.57;;;11.32;;
20695;SDS011;10507;52.754;13.040;2022-08-19T02:26:20;13.00;;;11.25;;
20695;SDS011;10507;52.754;13.040;2022-08-19T02:28:48;14.13;;;10.75;;
20695;SDS011;10507;52.754;13.040;2022-08-19T02:31:16;15.57;;;12.60;;
20695;SDS011;10507;52.754;13.040;2022-08-19T02:33:46;15.90;;;12.90;;
20695;SDS011;10507;52.754;13.040;2022-08-19T02:36:15;17.50;;;14.45;;
20695;SDS011;10507;52.754;13.040;2022-08-19T02:38:46;15.27;;;12.48;;
20695;SDS011;10507;52.754;13.040;2022-08-19T02:41:22;14.35;;;12.77;;
20695;SDS011;10507;52.754;13.040;2022-08-19T02:43:52;14.77;;;13.02;;
20695;SDS011;10507;52.754;13.040;2022-08-19T02:46:40;13.57;;;12.13;;
20695;SDS011;10507;52.754;13.040;2022-08-19T02:49:09;13.68;;;11.65;;
20695;SDS011;10507;52.754;13.040;2022-08-19T02:51:38;13.73;;;12.23;;
20695;SDS011;10507;52.754;13.040;2022-08-19T02:54:08;13.02;;;10.85;;
20695;SDS011;10507;52.754;13.040;2022-08-19T02:56:40;13.82;;;11.95;;
20695;SDS011;10507;52.754;13.040;2022-08-19T02:59:09;15.15;;;12.68;;
20695;SDS011;10507;52.754;13.040;2022-08-19T03:01:38;14.98;;;13.38;;
20695;SDS011;10507;52.754;13.040;2022-08-19T03:04:09;16.50;;;13.95;;
20695;SDS011;10507;52.754;13.040;2022-08-19T03:06:38;16.00;;;14.30;;
20695;SDS011;10507;52.754;13.040;2022-08-19T03:09:07;17.02;;;14.60;;
20695;SDS011;10507;52.754;13.040;2022-08-19T03:11:36;15.95;;;14.23;;
20695;SDS011;10507;52.754;13.040;2022-08-19T03:14:06;13.60;;;12.20;;
20695;SDS011;10507;52.754;13.040;2022-08-19T03:16:40;14.40;;;12.80;;
20695;SDS011;10507;52.754;13.040;2022-08-19T03:19:09;17.65;;;14.60;;
20695;SDS011;10507;52.754;13.040;2022-08-19T03:21:37;14.82;;;13.25;;
20695;SDS011;10507;52.754;13.040;2022-08-19T03:24:06;16.58;;;13.45;;
20695;SDS011;10507;52.754;13.040;2022-08-19T03:26:38;17.10;;;14.70;;
20695;SDS011;10507;52.754;13.040;2022-08-19T03:29:08;19.33;;;16.05;;
20695;SDS011;10507;52.754;13.040;2022-08-19T03:31:39;17.95;;;15.75;;
20695;SDS011;10507;52.754;13.040;2022-08-19T03:34:18;20.73;;;17.52;;
20695;SDS011;10507;52.754;13.040;2022-08-19T03:36:48;18.20;;;16.30;;
20695;SDS011;10507;52.754;13.040;2022-08-19T03:39:16;18.88;;;16.55;;
20695;SDS011;10507;52.754;13.040;2022-08-19T03:41:44;20.42;;;17.90;;
20695;SDS011;10507;52.754;13.040;2022-08-19T03:44:16;19.98;;;17.33;;
20695;SDS011;10507;52.754;13.040;2022-08-19T03:46:49;21.95;;;18.58;;
20695;SDS011;10507;52.754;13.040;2022-08-19T03:49:19;20.55;;;18.30;;
20695;SDS011;10507;52.754;13.040;2022-08-19T03:51:54;20.13;;;18.02;;
20695;SDS011;10507;52.754;13.040;2022-08-19T03:54:23;20.75;;;18.65;;
20695;SDS011;10507;52.754;13.040;2022-08-19T03:56:53;21.38;;;19.08;;
20695;SDS011;10507;52.754;13.040;2022-08-19T03:59:25;20.80;;;18.60;;
20695;SDS011;10507;52.754;13.040;2022-08-19T04:02:00;21.60;;;19.13;;
20695;SDS011;10507;52.754;13.040;2022-08-19T04:04:30;23.38;;;20.38;;
20695;SDS011;10507;52.754;13.040;2022-08-19T04:06:58;23.75;;;20.50;;
20695;SDS011;10507;52.754;13.040;2022-08-19T04:09:26;27.00;;;23.83;;
20695;SDS011;10507;52.754;13.040;2022-08-19T04:11:56;26.08;;;23.27;;
20695;SDS011;10507;52.754;13.040;2022-08-19T04:14:27;24.15;;;21.55;;
20695;SDS011;10507;52.754;13.040;2022-08-19T04:16:57;24.27;;;20.15;;
20695;SDS011;10507;52.754;13.040;2022-08-19T04:19:25;21.60;;;18.65;;
20695;SDS011;10507;52.754;13.040;2022-08-19T04:21:54;19.65;;;17.27;;
20695;SDS011;10507;52.754;13.040;2022-08-19T04:24:22;19.58;;;17.58;;
20695;SDS011;10507;52.754;13.040;2022-08-19T04:26:50;19.65;;;17.55;;
20695;SDS011;10507;52.754;13.040;2022-08-19T04:29:20;18.48;;;16.58;;
20695;SDS011;10507;52.754;13.040;2022-08-19T04:31:55;19.67;;;17.75;;
20695;SDS011;10507;52.754;13.040;2022-08-19T04:34:24;20.08;;;17.98;;
20695;SDS011;10507;52.754;13.040;2022-08-19T04:36:53;20.35;;;17.15;;
20695;SDS011;10507;52.754;13.040;2022-08-19T04:39:24;20.35;;;18.17;;
20695;SDS011;10507;52.754;13.040;2022-08-19T04:42:14;19.77;;;17.63;;
20695;SDS011;10507;52.754;13.040;2022-08-19T04:45:00;22.35;;;19.73;;
20695;SDS011;10507;52.754;13.040;2022-08-19T04:47:31;20.58;;;17.80;;
20695;SDS011;10507;52.754;13.040;2022-08-19T04:50:19;19.98;;;17.58;;
20695;SDS011;10507;52.754;13.040;2022-08-19T04:52:49;21.52;;;19.33;;
20695;SDS011;10507;52.754;13.040;2022-08-19T04:55:18;20.90;;;18.05;;
20695;SDS011;10507;52.754;13.040;2022-08-19T04:57:46;20.75;;;18.30;;
20695;SDS011;10507;52.754;13.040;2022-08-19T05:00:14;19.92;;;17.42;;
20695;SDS011;10507;52.754;13.040;2022-08-19T05:02:44;19.27;;;17.27;;
20695;SDS011;10507;52.754;13.040;2022-08-19T05:05:12;19.85;;;17.75;;
20695;SDS011;10507;52.754;13.040;2022-08-19T05:07:40;20.45;;;17.63;;
20695;SDS011;10507;52.754;13.040;2022-08-19T05:10:08;18.60;;;16.70;;
20695;SDS011;10507;52.754;13.040;2022-08-19T05:12:37;18.27;;;16.38;;
20695;SDS011;10507;52.754;13.040;2022-08-19T05:15:05;19.95;;;16.73;;
20695;SDS011;10507;52.754;13.040;2022-08-19T05:17:34;22.05;;;16.70;;
20695;SDS011;10507;52.754;13.040;2022-08-19T05:20:06;17.17;;;15.35;;
20695;SDS011;10507;52.754;13.040;2022-08-19T05:22:53;18.05;;;15.23;;
20695;SDS011;10507;52.754;13.040;2022-08-19T05:25:21;19.58;;;16.25;;
20695;SDS011;10507;52.754;13.040;2022-08-19T05:27:51;16.88;;;15.18;;
20695;SDS011;10507;52.754;13.040;2022-08-19T05:30:19;23.35;;;17.20;;
20695;SDS011;10507;52.754;13.040;2022-08-19T05:33:07;21.35;;;15.80;;
20695;SDS011;10507;52.754;13.040;2022-08-19T05:35:39;17.83;;;15.93;;
20695;SDS011;10507;52.754;13.040;2022-08-19T05:38:07;17.92;;;15.93;;
20695;SDS011;10507;52.754;13.040;2022-08-19T05:40:35;20.50;;;17.52;;
20695;SDS011;10507;52.754;13.040;2022-08-19T05:43:04;18.92;;;15.40;;
20695;SDS011;10507;52.754;13.040;2022-08-19T05:45:37;17.52;;;15.68;;
20695;SDS011;10507;52.754;13.040;2022-08-19T05:48:06;20.17;;;16.45;;
20695;SDS011;10507;52.754;13.040;2022-08-19T05:50:35;18.02;;;16.05;;
20695;SDS011;10507;52.754;13.040;2022-08-19T05:53:06;18.42;;;16.45;;
20695;SDS011;10507;52.754;13.040;2022-08-19T05:55:38;20.30;;;15.88;;
20695;SDS011;10507;52.754;13.040;2022-08-19T05:58:06;19.98;;;15.18;;
20695;SDS011;10507;52.754;13.040;2022-08-19T06:00:34;18.02;;;16.23;;
20695;SDS011;10507;52.754;13.040;2022-08-19T06:03:24;17.60;;;15.27;;
20695;SDS011;10507;52.754;13.040;2022-08-19T06:05:57;18.40;;;16.48;;
20695;SDS011;10507;52.754;13.040;2022-08-19T06:08:41;22.20;;;17.15;;
20695;SDS011;10507;52.754;13.040;2022-08-19T06:11:21;18.25;;;16.27;;
20695;SDS011;10507;52.754;13.040;2022-08-19T06:13:52;18.95;;;17.02;;
20695;SDS011;10507;52.754;13.040;2022-08-19T06:16:25;16.95;;;14.90;;
20695;SDS011;10507;52.754;13.040;2022-08-19T06:18:54;18.70;;;16.73;;
20695;SDS011;10507;52.754;13.040;2022-08-19T06:21:25;17.20;;;15.45;;
20695;SDS011;10507;52.754;13.040;2022-08-19T06:23:55;17.05;;;14.98;;
20695;SDS011;10507;52.754;13.040;2022-08-19T06:26:24;15.98;;;14.18;;
20695;SDS011;10507;52.754;13.040;2022-08-19T06:28:52;15.43;;;13.82;;
20695;SDS011;10507;52.754;13.040;2022-08-19T06:31:21;14.55;;;13.07;;
20695;SDS011;10507;52.754;13.040;2022-08-19T06:33:52;18.52;;;14.52;;
20695;SDS011;10507;52.754;13.040;2022-08-19T06:36:21;16.90;;;14.35;;
20695;SDS011;10507;52.754;13.040;2022-08-19T06:38:53;17.92;;;14.80;;
20695;SDS011;10507;52.754;13.040;2022-08-19T06:41:22;16.90;;;15.10;;
20695;SDS011;10507;52.754;13.040;2022-08-19T06:43:50;19.42;;;15.85;;
20695;SDS011;10507;52.754;13.040;2022-08-19T06:46:21;16.13;;;14.30;;
20695;SDS011;10507;52.754;13.040;2022-08-19T06:48:50;16.13;;;14.43;;
20695;SDS011;10507;52.754;13.040;2022-08-19T06:51:20;14.75;;;13.20;;
20695;SDS011;10507;52.754;13.040;2022-08-19T06:53:51;14.95;;;13.38;;
20695;SDS011;10507;52.754;13.040;2022-08-19T06:56:23;14.73;;;13.02;;
20695;SDS011;10507;52.754;13.040;2022-08-19T06:58:57;16.05;;;12.65;;
20695;SDS011;10507;52.754;13.040;2022-08-19T07:01:25;14.65;;;13.13;;
20695;SDS011;10507;52.754;13.040;2022-08-19T07:03:54;15.20;;;13.60;;
20695;SDS011;10507;52.754;13.040;2022-08-19T07:06:23;16.02;;;14.35;;
20695;SDS011;10507;52.754;13.040;2022-08-19T07:09:10;15.82;;;13.57;;
20695;SDS011;10507;52.754;13.040;2022-08-19T07:11:41;16.33;;;14.60;;
20695;SDS011;10507;52.754;13.040;2022-08-19T07:14:11;15.85;;;13.90;;
20695;SDS011;10507;52.754;13.040;2022-08-19T07:16:45;16.23;;;14.52;;
20695;SDS011;10507;52.754;13.040;2022-08-19T07:19:15;17.63;;;15.27;;
20695;SDS011;10507;52.754;13.040;2022-08-19T07:21:46;17.38;;;14.68;;
20695;SDS011;10507;52.754;13.040;2022-08-19T07:24:15;16.65;;;14.93;;
20695;SDS011;10507;52.754;13.040;2022-08-19T07:26:46;17.20;;;15.27;;
20695;SDS011;10507;52.754;13.040;2022-08-19T07:29:17;20.75;;;15.88;;
20695;SDS011;10507;52.754;13.040;2022-08-19T07:31:51;17.77;;;15.73;;
20695;SDS011;10507;52.754;13.040;2022-08-19T07:34:22;17.23;;;15.43;;
20695;SDS011;10507;52.754;13.040;2022-08-19T07:36:51;17.42;;;15.68;;
20695;SDS011;10507;52.754;13.040;2022-08-19T07:39:22;17.63;;;15.73;;
20695;SDS011;10507;52.754;13.040;2022-08-19T07:41:52;17.33;;;15.52;;
20695;SDS011;10507;52.754;13.040;2022-08-19T07:44:22;16.55;;;14.85;;
20695;SDS011;10507;52.754;13.040;2022-08-19T07:46:51;17.20;;;15.38;;
20695;SDS011;10507;52.754;13.040;2022-08-19T07:49:22;17.67;;;15.82;;
20695;SDS011;10507;52.754;13.040;2022-08-19T07:51:51;17.90;;;16.00;;
20695;SDS011;10507;52.754;13.040;2022-08-19T07:54:22;15.77;;;14.18;;
20695;SDS011;10507;52.754;13.040;2022-08-19T07:56:50;16.20;;;14.15;;
20695;SDS011;10507;52.754;13.040;2022-08-19T07:59:20;16.77;;;15.02;;
20695;SDS011;10507;52.754;13.040;2022-08-19T08:01:48;16.90;;;15.02;;
20695;SDS011;10507;52.754;13.040;2022-08-19T08:04:17;17.48;;;15.55;;
20695;SDS011;10507;52.754;13.040;2022-08-19T08:07:03;17.38;;;15.50;;
20695;SDS011;10507;52.754;13.040;2022-08-19T08:09:49;15.20;;;13.68;;
20695;SDS011;10507;52.754;13.040;2022-08-19T08:12:18;17.10;;;15.23;;
20695;SDS011;10507;52.754;13.040;2022-08-19T08:15:04;17.75;;;15.25;;
20695;SDS011;10507;52.754;13.040;2022-08-19T08:17:41;16.55;;;14.77;;
20695;SDS011;10507;52.754;13.040;2022-08-19T08:20:16;17.42;;;14.20;;
20695;SDS011;10507;52.754;13.040;2022-08-19T08:22:45;15.32;;;13.82;;
20695;SDS011;10507;52.754;13.040;2022-08-19T08:25:31;18.92;;;14.80;;
20695;SDS011;10507;52.754;13.040;2022-08-19T08:28:01;17.67;;;14.30;;
20695;SDS011;10507;52.754;13.040;2022-08-19T08:30:33;16.38;;;13.32;;
20695;SDS011;10507;52.754;13.040;2022-08-19T08:33:03;13.73;;;12.32;;
20695;SDS011;10507;52.754;13.040;2022-08-19T08:35:39;15.27;;;13.00;;
20695;SDS011;10507;52.754;13.040;2022-08-19T08:38:14;14.52;;;12.85;;
20695;SDS011;10507;52.754;13.040;2022-08-19T08:40:46;14.00;;;12.70;;
20695;SDS011;10507;52.754;13.040;2022-08-19T08:43:21;15.15;;;13.43;;
20695;SDS011;10507;52.754;13.040;2022-08-19T08:46:01;14.05;;;12.65;;
20695;SDS011;10507;52.754;13.040;2022-08-19T08:48:35;14.32;;;12.93;;
20695;SDS011;10507;52.754;13.040;2022-08-19T08:51:09;14.00;;;12.60;;
20695;SDS011;10507;52.754;13.040;2022-08-19T08:53:45;14.95;;;13.45;;
20695;SDS011;10507;52.754;13.040;2022-08-19T08:56:21;16.90;;;13.35;;
20695;SDS011;10507;52.754;13.040;2022-08-19T08:58:51;15.10;;;13.32;;
20695;SDS011;10507;52.754;13.040;2022-08-19T09:01:26;13.82;;;12.45;;
20695;SDS011;10507;52.754;13.040;2022-08-19T09:03:56;14.55;;;12.98;;
20695;SDS011;10507;52.754;13.040;2022-08-19T09:06:29;15.15;;;13.00;;
20695;SDS011;10507;52.754;13.040;2022-08-19T09:09:10;14.55;;;13.10;;
20695;SDS011;10507;52.754;13.040;2022-08-19T09:11:51;14.70;;;13.20;;
20695;SDS011;10507;52.754;13.040;2022-08-19T09:14:30;14.57;;;12.88;;
20695;SDS011;10507;52.754;13.040;2022-08-19T09:17:20;16.08;;;13.90;;
20695;SDS011;10507;52.754;13.040;2022-08-19T09:19:55;14.50;;;12.95;;
20695;SDS011;10507;52.754;13.040;2022-08-19T09:22:26;15.35;;;13.85;;
20695;SDS011;10507;52.754;13.040;2022-08-19T09:24:54;15.48;;;13.82;;
20695;SDS011;10507;52.754;13.040;2022-08-19T09:27:22;15.02;;;13.40;;
20695;SDS011;10507;52.754;13.040;2022-08-19T09:30:10;13.73;;;12.32;;
20695;SDS011;10507;52.754;13.040;2022-08-19T09:32:42;13.93;;;12.40;;
20695;SDS011;10507;52.754;13.040;2022-08-19T09:35:12;16.65;;;12.95;;
20695;SDS011;10507;52.754;13.040;2022-08-19T09:37:41;13.82;;;12.35;;
20695;SDS011;10507;52.754;13.040;2022-08-19T09:40:12;14.20;;;12.77;;
20695;SDS011;10507;52.754;13.040;2022-08-19T09:42:40;14.20;;;12.73;;
20695;SDS011;10507;52.754;13.040;2022-08-19T09:45:19;13.98;;;12.63;;
20695;SDS011;10507;52.754;13.040;2022-08-19T09:47:51;14.40;;;12.90;;
20695;SDS011;10507;52.754;13.040;2022-08-19T09:50:21;14.30;;;12.73;;
20695;SDS011;10507;52.754;13.040;2022-08-19T09:52:49;12.88;;;11.65;;
20695;SDS011;10507;52.754;13.040;2022-08-19T09:55:23;14.32;;;12.30;;
20695;SDS011;10507;52.754;13.040;2022-08-19T09:57:58;14.15;;;12.68;;
20695;SDS011;10507;52.754;13.040;2022-08-19T10:00:27;12.73;;;11.32;;
20695;SDS011;10507;52.754;13.040;2022-08-19T10:02:56;12.70;;;11.15;;
20695;SDS011;10507;52.754;13.040;2022-08-19T10:05:24;11.45;;;10.30;;
20695;SDS011;10507;52.754;13.040;2022-08-19T10:08:14;10.60;;;9.50;;
20695;SDS011;10507;52.754;13.040;2022-08-19T10:10:42;10.80;;;9.40;;
20695;SDS011;10507;52.754;13.040;2022-08-19T10:13:13;10.43;;;9.35;;
20695;SDS011;10507;52.754;13.040;2022-08-19T10:15:42;9.38;;;8.40;;
20695;SDS011;10507;52.754;13.040;2022-08-19T10:18:16;8.68;;;7.78;;
20695;SDS011;10507;52.754;13.040;2022-08-19T10:20:44;14.27;;;9.95;;
20695;SDS011;10507;52.754;13.040;2022-08-19T10:23:17;9.27;;;8.32;;
20695;SDS011;10507;52.754;13.040;2022-08-19T10:25:46;9.60;;;8.60;;
20695;SDS011;10507;52.754;13.040;2022-08-19T10:28:14;9.88;;;8.65;;
20695;SDS011;10507;52.754;13.040;2022-08-19T10:30:45;8.82;;;7.53;;
20695;SDS011;10507;52.754;13.040;2022-08-19T10:33:13;9.35;;;7.82;;
20695;SDS011;10507;52.754;13.040;2022-08-19T10:36:03;8.55;;;7.47;;
20695;SDS011;10507;52.754;13.040;2022-08-19T10:38:33;9.38;;;8.07;;
20695;SDS011;10507;52.754;13.040;2022-08-19T10:41:08;8.63;;;7.63;;
20695;SDS011;10507;52.754;13.040;2022-08-19T10:43:38;8.88;;;8.02;;
20695;SDS011;10507;52.754;13.040;2022-08-19T10:46:06;9.27;;;8.27;;
20695;SDS011;10507;52.754;13.040;2022-08-19T10:48:42;10.20;;;9.05;;
20695;SDS011;10507;52.754;13.040;2022-08-19T10:51:12;10.48;;;8.80;;
20695;SDS011;10507;52.754;13.040;2022-08-19T10:53:57;9.70;;;8.35;;
20695;SDS011;10507;52.754;13.040;2022-08-19T10:56:26;9.60;;;8.13;;
20695;SDS011;10507;52.754;13.040;2022-08-19T10:59:12;11.93;;;8.60;;
20695;SDS011;10507;52.754;13.040;2022-08-19T11:01:41;9.85;;;8.85;;
20695;SDS011;10507;52.754;13.040;2022-08-19T11:04:10;9.80;;;8.55;;
20695;SDS011;10507;52.754;13.040;2022-08-19T11:06:41;11.85;;;8.82;;
20695;SDS011;10507;52.754;13.040;2022-08-19T11:09:09;10.85;;;8.85;;
20695;SDS011;10507;52.754;13.040;2022-08-19T11:11:38;9.65;;;8.65;;
20695;SDS011;10507;52.754;13.040;2022-08-19T11:14:07;9.18;;;8.27;;
20695;SDS011;10507;52.754;13.040;2022-08-19T11:16:36;9.68;;;8.35;;
20695;SDS011;10507;52.754;13.040;2022-08-19T11:19:05;8.93;;;7.93;;
20695;SDS011;10507;52.754;13.040;2022-08-19T11:21:35;9.65;;;8.63;;
20695;SDS011;10507;52.754;13.040;2022-08-19T11:24:06;8.98;;;8.07;;
20695;SDS011;10507;52.754;13.040;2022-08-19T11:26:36;11.48;;;8.90;;
20695;SDS011;10507;52.754;13.040;2022-08-19T11:29:05;10.35;;;8.50;;
20695;SDS011;10507;52.754;13.040;2022-08-19T11:31:38;8.75;;;7.88;;
20695;SDS011;10507;52.754;13.040;2022-08-19T11:34:08;11.07;;;9.00;;
20695;SDS011;10507;52.754;13.040;2022-08-19T11:36:38;9.43;;;8.52;;
20695;SDS011;10507;52.754;13.040;2022-08-19T11:39:10;8.95;;;7.78;;
20695;SDS011;10507;52.754;13.040;2022-08-19T11:41:40;8.65;;;7.75;;
20695;SDS011;10507;52.754;13.040;2022-08-19T11:44:08;9.00;;;8.10;;
20695;SDS011;10507;52.754;13.040;2022-08-19T11:46:36;8.75;;;7.85;;
20695;SDS011;10507;52.754;13.040;2022-08-19T11:49:05;8.82;;;7.93;;
20695;SDS011;10507;52.754;13.040;2022-08-19T11:51:39;11.00;;;8.30;;
20695;SDS011;10507;52.754;13.040;2022-08-19T11:54:10;13.15;;;9.38;;
20695;SDS011;10507;52.754;13.040;2022-08-19T11:56:39;9.35;;;8.45;;
20695;SDS011;10507;52.754;13.040;2022-08-19T11:59:07;13.40;;;8.45;;
20695;SDS011;10507;52.754;13.040;2022-08-19T12:01:40;9.05;;;7.85;;
20695;SDS011;10507;52.754;13.040;2022-08-19T12:04:09;9.95;;;8.32;;
20695;SDS011;10507;52.754;13.040;2022-08-19T12:06:39;8.90;;;8.00;;
20695;SDS011;10507;52.754;13.040;2022-08-19T12:09:08;9.18;;;8.27;;
20695;SDS011;10507;52.754;13.040;2022-08-19T12:11:38;9.05;;;8.10;;
20695;SDS011;10507;52.754;13.040;2022-08-19T12:14:08;9.77;;;8.77;;
20695;SDS011;10507;52.754;13.040;2022-08-19T12:16:40;10.30;;;8.98;;
20695;SDS011;10507;52.754;13.040;2022-08-19T12:19:16;9.73;;;8.73;;
20695;SDS011;10507;52.754;13.040;2022-08-19T12:21:48;10.10;;;8.77;;
20695;SDS011;10507;52.754;13.040;2022-08-19T12:24:16;8.90;;;8.02;;
20695;SDS011;10507;52.754;13.040;2022-08-19T12:26:50;9.48;;;8.48;;
20695;SDS011;10507;52.754;13.040;2022-08-19T12:29:20;11.13;;;8.85;;
20695;SDS011;10507;52.754;13.040;2022-08-19T12:31:56;12.63;;;8.95;;
20695;SDS011;10507;52.754;13.040;2022-08-19T12:34:27;10.25;;;9.13;;
20695;SDS011;10507;52.754;13.040;2022-08-19T12:36:57;10.20;;;8.35;;
20695;SDS011;10507;52.754;13.040;2022-08-19T12:39:25;9.85;;;8.45;;
20695;SDS011;10507;52.754;13.040;2022-08-19T12:41:54;8.77;;;7.88;;
20695;SDS011;10507;52.754;13.040;2022-08-19T12:44:22;8.85;;;7.95;;
20695;SDS011;10507;52.754;13.040;2022-08-19T12:46:58;9.02;;;8.13;;
20695;SDS011;10507;52.754;13.040;2022-08-19T12:49:31;10.02;;;8.02;;
20695;SDS011;10507;52.754;13.040;2022-08-19T12:52:20;8.90;;;7.85;;
20695;SDS011;10507;52.754;13.040;2022-08-19T12:54:49;8.90;;;8.00;;
20695;SDS011;10507;52.754;13.040;2022-08-19T12:57:21;10.43;;;8.30;;
20695;SDS011;10507;52.754;13.040;2022-08-19T12:59:58;8.60;;;7.50;;
20695;SDS011;10507;52.754;13.040;2022-08-19T13:02:30;10.35;;;8.63;;
20695;SDS011;10507;52.754;13.040;2022-08-19T13:05:04;8.80;;;7.90;;
20695;SDS011;10507;52.754;13.040;2022-08-19T13:07:34;10.07;;;8.35;;
20695;SDS011;10507;52.754;13.040;2022-08-19T13:10:03;9.75;;;8.07;;
20695;SDS011;10507;52.754;13.040;2022-08-19T13:12:34;8.57;;;7.68;;
20695;SDS011;10507;52.754;13.040;2022-08-19T13:15:02;9.05;;;8.15;;
20695;SDS011;10507;52.754;13.040;2022-08-19T13:17:36;8.90;;;7.93;;
20695;SDS011;10507;52.754;13.040;2022-08-19T13:20:05;8.25;;;7.43;;
20695;SDS011;10507;52.754;13.040;2022-08-19T13:22:34;8.57;;;7.40;;
20695;SDS011;10507;52.754;13.040;2022-08-19T13:25:02;7.95;;;7.07;;
20695;SDS011;10507;52.754;13.040;2022-08-19T13:27:31;8.75;;;7.88;;
20695;SDS011;10507;52.754;13.040;2022-08-19T13:30:01;10.50;;;8.05;;
20695;SDS011;10507;52.754;13.040;2022-08-19T13:32:48;8.82;;;7.93;;
20695;SDS011;10507;52.754;13.040;2022-08-19T13:35:33;8.95;;;7.80;;
20695;SDS011;10507;52.754;13.040;2022-08-19T13:38:01;8.70;;;7.80;;
20695;SDS011;10507;52.754;13.040;2022-08-19T13:40:34;8.65;;;7.75;;
20695;SDS011;10507;52.754;13.040;2022-08-19T13:43:05;10.00;;;7.88;;
20695;SDS011;10507;52.754;13.040;2022-08-19T13:45:49;8.55;;;7.32;;
20695;SDS011;10507;52.754;13.040;2022-08-19T13:48:23;8.55;;;7.65;;
20695;SDS011;10507;52.754;13.040;2022-08-19T13:50:52;8.75;;;7.80;;
20695;SDS011;10507;52.754;13.040;2022-08-19T13:53:20;8.43;;;7.63;;
20695;SDS011;10507;52.754;13.040;2022-08-19T13:55:48;10.20;;;8.38;;
20695;SDS011;10507;52.754;13.040;2022-08-19T13:58:17;8.93;;;8.02;;
20695;SDS011;10507;52.754;13.040;2022-08-19T14:00:46;9.35;;;8.30;;
20695;SDS011;10507;52.754;13.040;2022-08-19T14:03:16;9.00;;;7.65;;
20695;SDS011;10507;52.754;13.040;2022-08-19T14:05:43;9.38;;;8.48;;
20695;SDS011;10507;52.754;13.040;2022-08-19T14:08:13;8.73;;;7.82;;
20695;SDS011;10507;52.754;13.040;2022-08-19T14:10:41;10.20;;;9.15;;
20695;SDS011;10507;52.754;13.040;2022-08-19T14:13:12;10.65;;;8.57;;
20695;SDS011;10507;52.754;13.040;2022-08-19T14:15:41;10.52;;;9.20;;
20695;SDS011;10507;52.754;13.040;2022-08-19T14:18:10;10.35;;;9.15;;
20695;SDS011;10507;52.754;13.040;2022-08-19T14:20:40;10.10;;;8.30;;
20695;SDS011;10507;52.754;13.040;2022-08-19T14:23:08;8.82;;;7.88;;
20695;SDS011;10507;52.754;13.040;2022-08-19T14:25:36;9.35;;;8.38;;
20695;SDS011;10507;52.754;13.040;2022-08-19T14:28:04;10.60;;;8.40;;
20695;SDS011;10507;52.754;13.040;2022-08-19T14:30:33;8.40;;;7.50;;
20695;SDS011;10507;52.754;13.040;2022-08-19T14:33:03;8.90;;;7.93;;
20695;SDS011;10507;52.754;13.040;2022-08-19T14:35:33;9.68;;;8.45;;
20695;SDS011;10507;52.754;13.040;2022-08-19T14:38:03;9.27;;;8.38;;
20695;SDS011;10507;52.754;13.040;2022-08-19T14:40:32;11.40;;;8.45;;
20695;SDS011;10507;52.754;13.040;2022-08-19T14:43:01;9.23;;;8.05;;